Time;durP1;ratioP1;P1;durP2;ratioP2;P2;SDS_P1;SDS_P2;PMS_P1;PMS_P2;Temp;Humidity;BMP_temperature;BMP_pressure;BME280_temperature;BME280_humidity;BME280_pressure;Samples;Min_cycle;Max_cycle;Signal;HPM_P1;HPM_P2
2023/06/29 00:00:12;;;;;;;4.53;2.63;;;17.40;99.90;;;;;;5030181;28;20202;-52
2023/06/29 00:02:41;;;;;;;4.07;2.70;;;17.20;99.90;;;;;;5031066;28;20254;-51
2023/06/29 00:05:10;;;;;;;3.40;2.63;;;17.20;99.90;;;;;;5020437;28;20405;-52
2023/06/29 00:07:39;;;;;;;2.83;2.53;;;17.10;99.90;;;;;;5037153;28;20225;-51
2023/06/29 00:10:07;;;;;;;3.27;3.03;;;17.10;99.90;;;;;;5029691;28;20222;-52
2023/06/29 00:12:34;;;;;;;3.67;3.07;;;17.10;99.90;;;;;;5032286;28;20680;-51
2023/06/29 00:15:01;;;;;;;4.73;3.07;;;17.10;99.90;;;;;;5030819;28;20237;-51
2023/06/29 00:17:29;;;;;;;2.10;2.00;;;17.10;99.90;;;;;;5031588;28;20199;-52
2023/06/29 00:19:56;;;;;;;2.63;2.53;;;17.10;99.90;;;;;;5032776;28;20202;-51
2023/06/29 00:22:23;;;;;;;2.87;2.37;;;17.10;99.90;;;;;;5032360;28;20230;-52
2023/06/29 00:24:55;;;;;;;2.90;2.80;;;17.10;99.90;;;;;;5031730;28;20202;-51
2023/06/29 00:27:22;;;;;;;3.53;3.07;;;17.10;99.90;;;;;;5030516;28;20285;-52
2023/06/29 00:29:49;;;;;;;3.37;3.07;;;17.00;99.90;;;;;;5029408;28;20207;-51
2023/06/29 00:32:16;;;;;;;7.10;3.00;;;17.00;99.90;;;;;;5031318;28;20199;-52
2023/06/29 00:34:44;;;;;;;2.80;2.53;;;17.00;99.90;;;;;;5028065;28;20348;-51
2023/06/29 00:37:11;;;;;;;3.67;2.73;;;16.90;99.90;;;;;;5031092;28;20206;-52
2023/06/29 00:39:39;;;;;;;5.33;3.20;;;16.90;99.90;;;;;;5026258;28;20242;-52
2023/06/29 00:42:07;;;;;;;3.37;2.97;;;16.90;99.90;;;;;;5031250;28;20237;-51
2023/06/29 00:44:34;;;;;;;3.20;2.67;;;16.90;99.90;;;;;;5030639;28;20276;-52
2023/06/29 00:47:02;;;;;;;4.30;2.90;;;16.90;99.90;;;;;;5032063;28;20249;-51
2023/06/29 00:49:29;;;;;;;3.33;2.17;;;16.80;99.90;;;;;;5030975;28;20280;-52
2023/06/29 00:51:56;;;;;;;4.27;3.23;;;16.80;99.90;;;;;;5032120;28;20798;-51
2023/06/29 00:54:23;;;;;;;3.47;3.27;;;16.70;99.90;;;;;;5025730;28;20202;-51
2023/06/29 00:56:50;;;;;;;3.53;2.87;;;16.70;99.90;;;;;;5031117;28;20207;-52
2023/06/29 00:59:19;;;;;;;4.20;3.53;;;16.70;99.90;;;;;;5030280;28;20222;-52
2023/06/29 01:01:46;;;;;;;3.37;3.27;;;16.70;99.90;;;;;;5030895;28;20617;-52
2023/06/29 01:04:17;;;;;;;2.87;2.67;;;16.80;99.90;;;;;;5030094;28;20226;-51
2023/06/29 01:06:51;;;;;;;3.37;2.87;;;16.80;99.90;;;;;;5027556;28;20297;-52
2023/06/29 01:09:19;;;;;;;4.33;3.53;;;16.70;99.90;;;;;;5029586;28;20697;-52
2023/06/29 01:11:46;;;;;;;4.17;2.90;;;16.70;99.90;;;;;;5030768;28;20202;-52
2023/06/29 01:14:15;;;;;;;3.83;3.57;;;16.70;99.90;;;;;;5029962;28;20194;-52
2023/06/29 01:16:44;;;;;;;4.10;3.73;;;16.70;99.90;;;;;;5031579;28;20272;-51
2023/06/29 01:19:16;;;;;;;3.27;2.97;;;16.60;99.90;;;;;;5011782;28;20235;-52
2023/06/29 01:21:54;;;;;;;3.57;3.10;;;16.60;99.90;;;;;;5012310;28;20203;-51
2023/06/29 01:24:24;;;;;;;3.73;3.40;;;16.60;99.90;;;;;;5017036;28;20218;-51
2023/06/29 01:26:53;;;;;;;3.90;3.50;;;16.60;99.90;;;;;;5030552;28;20199;-52
2023/06/29 01:29:24;;;;;;;3.70;3.50;;;16.50;99.90;;;;;;5031585;28;20311;-51
2023/06/29 01:31:53;;;;;;;3.93;3.63;;;16.50;99.90;;;;;;5031837;28;20207;-52
2023/06/29 01:34:21;;;;;;;3.83;3.30;;;16.40;99.90;;;;;;5030528;28;20198;-52
2023/06/29 01:36:51;;;;;;;3.90;3.20;;;16.30;99.90;;;;;;5029931;28;20202;-52
2023/06/29 01:39:24;;;;;;;4.60;3.33;;;16.30;99.90;;;;;;5027764;28;20238;-51
2023/06/29 01:41:54;;;;;;;4.10;3.83;;;16.30;99.90;;;;;;5027603;28;20207;-51
2023/06/29 01:44:20;;;;;;;4.13;3.30;;;16.30;99.90;;;;;;5029414;28;20315;-52
2023/06/29 01:46:48;;;;;;;4.83;4.43;;;16.30;99.90;;;;;;5025746;28;20199;-52
2023/06/29 01:49:16;;;;;;;3.90;3.60;;;16.30;99.90;;;;;;5025160;28;20222;-52
2023/06/29 01:51:43;;;;;;;4.73;3.73;;;16.30;99.90;;;;;;5028116;28;20348;-52
2023/06/29 01:54:09;;;;;;;4.50;4.20;;;16.20;99.90;;;;;;5025876;28;20705;-52
2023/06/29 01:56:36;;;;;;;2.90;2.67;;;16.20;99.90;;;;;;5028045;28;20584;-52
2023/06/29 01:59:05;;;;;;;5.10;4.13;;;16.20;99.90;;;;;;5030253;28;20735;-51
2023/06/29 02:01:32;;;;;;;4.10;3.67;;;16.30;99.90;;;;;;5030456;28;20203;-51
2023/06/29 02:03:59;;;;;;;4.17;3.80;;;16.30;99.90;;;;;;5029647;28;20304;-51
2023/06/29 02:06:26;;;;;;;2.87;2.67;;;16.20;99.90;;;;;;5027666;28;20252;-52
2023/06/29 02:08:52;;;;;;;3.57;3.37;;;16.20;99.90;;;;;;5026127;28;20218;-52
2023/06/29 02:11:20;;;;;;;4.70;3.67;;;16.20;99.90;;;;;;5029977;28;20734;-51
2023/06/29 02:13:47;;;;;;;6.67;3.73;;;16.10;99.90;;;;;;5028474;28;20602;-52
2023/06/29 02:16:16;;;;;;;4.10;3.73;;;16.10;99.90;;;;;;5028893;28;20208;-52
2023/06/29 02:18:43;;;;;;;3.77;3.53;;;16.00;99.90;;;;;;5030198;28;20296;-51
2023/06/29 02:21:10;;;;;;;3.80;3.60;;;16.00;99.90;;;;;;5030779;28;20268;-52
2023/06/29 02:23:37;;;;;;;3.83;3.73;;;16.00;99.90;;;;;;5029934;28;20257;-51
2023/06/29 02:26:04;;;;;;;6.27;3.33;;;16.00;99.90;;;;;;5030786;28;20249;-52
2023/06/29 02:28:30;;;;;;;4.50;4.07;;;16.10;99.90;;;;;;5031153;28;20276;-52
2023/06/29 02:30:57;;;;;;;4.67;4.23;;;16.10;99.90;;;;;;5033914;28;20309;-51
2023/06/29 02:33:26;;;;;;;3.87;3.57;;;16.10;99.90;;;;;;5033626;28;20202;-51
2023/06/29 02:35:53;;;;;;;4.83;4.30;;;16.20;99.90;;;;;;5032948;28;20241;-51
2023/06/29 02:38:19;;;;;;;3.90;3.70;;;16.10;99.90;;;;;;5034992;28;20254;-51
2023/06/29 02:40:46;;;;;;;4.10;3.80;;;16.00;99.90;;;;;;5034852;28;20754;-51
2023/06/29 02:43:14;;;;;;;4.40;4.03;;;16.00;99.90;;;;;;5034528;28;20340;-51
2023/06/29 02:45:41;;;;;;;4.30;4.10;;;15.90;99.90;;;;;;5032524;28;20227;-51
2023/06/29 02:48:08;;;;;;;4.77;4.47;;;15.90;99.90;;;;;;5030921;28;20294;-51
2023/06/29 02:50:36;;;;;;;4.50;4.20;;;15.90;99.90;;;;;;5034553;28;20237;-51
2023/06/29 02:53:03;;;;;;;3.80;3.60;;;15.90;99.90;;;;;;5033411;28;20691;-51
2023/06/29 02:55:32;;;;;;;4.80;4.10;;;15.90;99.90;;;;;;5032802;28;20209;-52
2023/06/29 02:57:59;;;;;;;5.60;5.20;;;15.80;99.90;;;;;;5031776;28;20708;-51
2023/06/29 03:00:26;;;;;;;3.93;3.63;;;15.80;99.90;;;;;;5032581;28;20673;-51
2023/06/29 03:02:53;;;;;;;3.50;3.40;;;15.70;99.90;;;;;;5031662;28;20774;-51
2023/06/29 03:05:20;;;;;;;5.07;4.63;;;15.70;99.90;;;;;;5031371;28;20264;-51
2023/06/29 03:07:48;;;;;;;4.90;4.70;;;15.70;99.90;;;;;;5032237;28;20678;-51
2023/06/29 03:10:15;;;;;;;5.27;4.90;;;15.70;99.90;;;;;;5031291;28;20253;-51
2023/06/29 03:12:42;;;;;;;4.63;4.37;;;15.70;99.90;;;;;;5031140;28;20690;-51
2023/06/29 03:15:10;;;;;;;4.80;4.40;;;15.60;99.90;;;;;;5028307;28;20198;-51
2023/06/29 03:17:37;;;;;;;3.90;3.70;;;15.60;99.90;;;;;;5029893;28;20214;-51
2023/06/29 03:20:06;;;;;;;4.57;4.37;;;15.60;99.90;;;;;;5033880;28;20203;-51
2023/06/29 03:22:34;;;;;;;5.03;4.50;;;15.60;99.90;;;;;;5033129;28;20714;-51
2023/06/29 03:25:03;;;;;;;4.60;4.40;;;15.60;99.90;;;;;;5033932;28;20206;-51
2023/06/29 03:27:33;;;;;;;4.53;4.17;;;15.60;99.90;;;;;;5031270;28;20211;-51
2023/06/29 03:30:00;;;;;;;5.27;4.57;;;15.60;99.90;;;;;;5026118;28;20685;-51
2023/06/29 03:32:27;;;;;;;5.13;4.83;;;15.60;99.90;;;;;;5032524;28;20864;-52
2023/06/29 03:34:54;;;;;;;4.97;4.57;;;15.60;99.90;;;;;;5032572;28;20625;-51
2023/06/29 03:37:21;;;;;;;5.97;4.83;;;15.60;99.90;;;;;;5032746;28;20203;-51
2023/06/29 03:39:48;;;;;;;5.73;5.17;;;15.60;99.90;;;;;;5032431;28;20552;-51
2023/06/29 03:42:16;;;;;;;5.27;4.97;;;15.60;99.90;;;;;;5028227;28;20233;-51
2023/06/29 03:44:43;;;;;;;4.10;3.63;;;15.60;99.90;;;;;;5028176;28;20316;-51
2023/06/29 03:47:10;;;;;;;5.83;5.13;;;15.60;99.90;;;;;;5033680;28;20210;-51
2023/06/29 03:49:37;;;;;;;5.97;5.47;;;15.60;99.90;;;;;;5032492;28;20222;-51
2023/06/29 03:52:04;;;;;;;5.47;4.97;;;15.60;99.90;;;;;;5027443;28;20198;-52
2023/06/29 03:54:31;;;;;;;6.43;5.60;;;15.60;99.90;;;;;;5030139;28;20256;-51
2023/06/29 03:56:58;;;;;;;4.87;4.47;;;15.60;99.90;;;;;;5031540;28;20207;-51
2023/06/29 03:59:26;;;;;;;5.00;4.70;;;15.60;99.90;;;;;;5032547;28;20249;-51
2023/06/29 04:01:53;;;;;;;6.50;5.20;;;15.60;99.90;;;;;;5031894;28;20738;-52
2023/06/29 04:04:20;;;;;;;4.90;4.60;;;15.60;99.90;;;;;;5029386;28;20253;-51
2023/06/29 04:06:47;;;;;;;5.60;5.17;;;15.60;99.90;;;;;;5028733;28;20211;-51
2023/06/29 04:09:14;;;;;;;4.60;4.37;;;15.60;99.90;;;;;;5032883;28;20276;-52
2023/06/29 04:11:41;;;;;;;4.83;4.43;;;15.70;99.90;;;;;;5031951;28;20264;-52
2023/06/29 04:14:08;;;;;;;5.23;4.83;;;15.70;99.90;;;;;;5027817;28;20190;-51
2023/06/29 04:16:36;;;;;;;7.93;6.10;;;15.80;99.90;;;;;;5031825;28;20672;-51
2023/06/29 04:19:03;;;;;;;6.40;5.77;;;15.90;99.90;;;;;;5030781;28;20704;-51
2023/06/29 04:21:30;;;;;;;5.50;5.07;;;16.00;99.90;;;;;;5032046;28;20249;-51
2023/06/29 04:23:57;;;;;;;5.13;4.73;;;16.00;99.90;;;;;;5030519;28;20218;-51
2023/06/29 04:26:27;;;;;;;5.57;5.17;;;16.10;99.90;;;;;;5028126;28;20206;-51
2023/06/29 04:29:01;;;;;;;5.87;5.37;;;16.10;99.90;;;;;;5031660;28;20229;-51
2023/06/29 04:31:29;;;;;;;4.57;4.27;;;16.20;99.90;;;;;;5028359;28;20202;-51
2023/06/29 04:33:59;;;;;;;5.53;5.07;;;16.30;99.90;;;;;;5024445;28;20249;-51
2023/06/29 04:36:26;;;;;;;6.00;5.50;;;16.30;99.90;;;;;;5020543;28;20228;-51
2023/06/29 04:38:53;;;;;;;6.20;4.43;;;16.40;99.90;;;;;;5021526;28;20289;-51
2023/06/29 04:41:31;;;;;;;6.33;5.70;;;16.50;99.90;;;;;;5021957;28;20247;-51
2023/06/29 04:43:59;;;;;;;5.60;4.87;;;16.60;99.90;;;;;;5021815;28;20222;-51
2023/06/29 04:46:27;;;;;;;6.23;5.63;;;16.70;99.90;;;;;;5022287;28;20351;-51
2023/06/29 04:48:54;;;;;;;6.67;4.93;;;16.80;99.90;;;;;;5018073;28;22034;-51
2023/06/29 04:51:25;;;;;;;5.70;5.20;;;16.90;99.90;;;;;;5017820;28;20684;-52
2023/06/29 04:53:52;;;;;;;5.97;5.47;;;17.00;99.90;;;;;;5021144;28;20580;-51
2023/06/29 04:56:19;;;;;;;6.53;5.03;;;17.10;99.90;;;;;;5020610;28;20202;-51
2023/06/29 04:58:45;;;;;;;7.17;4.83;;;17.20;99.90;;;;;;5020995;28;20319;-51
2023/06/29 05:01:12;;;;;;;5.90;5.40;;;17.30;99.90;;;;;;5021778;28;20396;-51
2023/06/29 05:03:39;;;;;;;6.07;5.47;;;17.50;99.90;;;;;;5020284;28;20246;-51
2023/06/29 05:06:06;;;;;;;5.83;5.30;;;17.60;99.90;;;;;;5020159;28;20280;-52
2023/06/29 05:08:35;;;;;;;4.77;4.37;;;17.70;99.90;;;;;;5021595;28;20306;-51
2023/06/29 05:11:02;;;;;;;5.73;5.07;;;17.90;99.90;;;;;;5023098;28;20198;-51
2023/06/29 05:13:29;;;;;;;6.77;5.27;;;18.00;99.90;;;;;;5023277;28;20626;-51
2023/06/29 05:15:56;;;;;;;7.03;5.23;;;18.20;99.90;;;;;;5022031;28;20741;-52
2023/06/29 05:18:23;;;;;;;4.70;4.43;;;18.50;99.90;;;;;;5021253;28;20303;-51
2023/06/29 05:20:50;;;;;;;6.13;5.70;;;18.90;99.90;;;;;;5018399;28;20241;-52
2023/06/29 05:23:18;;;;;;;5.90;4.47;;;19.60;99.90;;;;;;5020566;28;20211;-52
2023/06/29 05:25:46;;;;;;;4.73;4.43;;;20.30;99.90;;;;;;5020154;28;20214;-51
2023/06/29 05:28:13;;;;;;;6.60;5.00;;;21.00;99.90;;;;;;5020615;28;20328;-52
2023/06/29 05:30:40;;;;;;;4.93;4.53;;;21.60;99.90;;;;;;5020498;28;20248;-52
2023/06/29 05:33:08;;;;;;;4.97;4.20;;;22.20;99.90;;;;;;5027913;28;20205;-51
2023/06/29 05:35:35;;;;;;;9.53;4.43;;;22.70;99.90;;;;;;5026470;28;20196;-51
2023/06/29 05:38:02;;;;;;;3.30;3.10;;;23.30;99.90;;;;;;5021672;28;20245;-52
2023/06/29 05:40:29;;;;;;;4.07;3.73;;;23.70;99.90;;;;;;5022407;28;20887;-52
2023/06/29 05:42:58;;;;;;;3.73;3.53;;;24.20;99.90;;;;;;5019192;28;20195;-57
2023/06/29 05:45:25;;;;;;;4.13;3.07;;;24.70;99.90;;;;;;5020723;28;20339;-52
2023/06/29 05:47:52;;;;;;;5.03;4.67;;;24.80;99.90;;;;;;5021079;28;20226;-52
2023/06/29 05:50:20;;;;;;;3.90;3.60;;;25.20;99.90;;;;;;5017985;28;20344;-52
2023/06/29 05:52:47;;;;;;;6.90;3.40;;;25.20;99.90;;;;;;5019369;28;20212;-52
2023/06/29 05:55:14;;;;;;;5.33;3.33;;;25.50;99.90;;;;;;5017755;28;20199;-52
2023/06/29 05:57:41;;;;;;;3.53;3.33;;;25.70;99.90;;;;;;5018875;28;20307;-52
2023/06/29 06:00:12;;;;;;;2.87;2.70;;;26.10;99.90;;;;;;5018660;28;20221;-52
2023/06/29 06:02:40;;;;;;;4.07;3.67;;;26.20;99.90;;;;;;5015913;28;20457;-52
2023/06/29 06:05:08;;;;;;;3.67;3.37;;;26.60;99.90;;;;;;5037495;22;20298;-59
2023/06/29 06:07:35;;;;;;;9.13;5.00;;;26.80;99.90;;;;;;5011211;28;20677;-59
2023/06/29 06:10:02;;;;;;;5.73;4.77;;;27.00;99.90;;;;;;5009474;28;20203;-59
2023/06/29 06:12:33;;;;;;;5.63;5.03;;;27.10;99.90;;;;;;5016046;28;20207;-59
2023/06/29 06:15:00;;;;;;;8.33;4.07;;;27.10;99.90;;;;;;5009664;28;20689;-59
2023/06/29 06:17:31;;;;;;;3.97;3.77;;;26.90;99.90;;;;;;5010625;28;20632;-59
2023/06/29 06:19:59;;;;;;;5.40;4.70;;;27.40;99.90;;;;;;5009564;28;20249;-60
2023/06/29 06:22:25;;;;;;;4.78;4.38;;;27.50;99.90;;;;;;5009988;28;20295;-58
2023/06/29 06:24:52;;;;;;;3.75;3.40;;;27.60;99.90;;;;;;5009481;28;20234;-59
2023/06/29 06:27:19;;;;;;;6.13;5.07;;;27.90;99.90;;;;;;5010738;28;20207;-59
2023/06/29 06:29:46;;;;;;;4.13;3.88;;;28.20;99.90;;;;;;5008526;28;20688;-62
2023/06/29 06:32:14;;;;;;;5.07;4.57;;;28.20;99.90;;;;;;5011259;28;20739;-65
2023/06/29 06:34:43;;;;;;;8.13;4.57;;;27.80;99.00;;;;;;5014341;28;20227;-68
2023/06/29 06:37:11;;;;;;;6.60;4.53;;;28.10;98.00;;;;;;4999015;28;20258;-66
2023/06/29 06:39:38;;;;;;;4.72;4.22;;;28.60;99.70;;;;;;5015326;28;20253;-66
2023/06/29 06:42:05;;;;;;;4.60;4.20;;;28.70;97.80;;;;;;5013020;28;20211;-68
2023/06/29 06:44:32;;;;;;;8.05;5.20;;;29.10;97.00;;;;;;5016763;28;20671;-67
2023/06/29 06:46:59;;;;;;;4.63;4.22;;;29.30;96.80;;;;;;5010499;28;20211;-68
2023/06/29 06:49:26;;;;;;;8.07;5.82;;;29.50;96.90;;;;;;5016856;28;20624;-68
2023/06/29 06:51:54;;;;;;;4.80;4.30;;;29.60;95.70;;;;;;5008767;28;20283;-59
2023/06/29 06:54:21;;;;;;;4.95;4.55;;;29.90;96.30;;;;;;5010320;28;20226;-59
2023/06/29 06:56:48;;;;;;;5.38;4.97;;;30.10;96.40;;;;;;5008645;28;20711;-59
2023/06/29 06:59:15;;;;;;;6.10;5.60;;;30.10;97.10;;;;;;5018907;28;20661;-59
2023/06/29 07:01:42;;;;;;;4.70;4.40;;;30.00;95.60;;;;;;5006413;28;20442;-61
2023/06/29 07:04:09;;;;;;;4.93;4.38;;;30.10;95.60;;;;;;5012221;28;20230;-59
2023/06/29 07:06:37;;;;;;;5.65;5.22;;;30.60;94.80;;;;;;5019410;28;20207;-59
2023/06/29 07:09:07;;;;;;;5.85;5.30;;;30.50;93.60;;;;;;5014484;28;20199;-59
2023/06/29 07:11:34;;;;;;;5.78;5.28;;;30.40;94.30;;;;;;5014524;28;20208;-60
2023/06/29 07:14:02;;;;;;;8.07;5.43;;;29.90;93.90;;;;;;5017482;28;20992;-59
2023/06/29 07:16:29;;;;;;;7.63;5.18;;;30.00;96.10;;;;;;5019714;28;20731;-59
2023/06/29 07:19:04;;;;;;;5.70;4.88;;;29.80;95.60;;;;;;5029180;28;20198;-59
2023/06/29 07:21:31;;;;;;;6.60;5.07;;;30.20;97.20;;;;;;5014057;28;20633;-60
2023/06/29 07:23:59;;;;;;;5.40;4.90;;;30.50;94.40;;;;;;5019837;28;20266;-59
2023/06/29 07:26:27;;;;;;;5.65;5.07;;;30.20;94.20;;;;;;5015558;28;20257;-59
2023/06/29 07:28:54;;;;;;;6.90;5.70;;;30.30;95.80;;;;;;5014866;28;20207;-60
2023/06/29 07:31:25;;;;;;;5.00;4.65;;;30.40;95.60;;;;;;5012838;28;20210;-59
2023/06/29 07:33:53;;;;;;;8.27;5.00;;;30.40;96.00;;;;;;5012357;28;20289;-60
2023/06/29 07:36:20;;;;;;;10.07;5.30;;;30.80;94.90;;;;;;5014619;28;20221;-59
2023/06/29 07:38:47;;;;;;;5.68;4.95;;;30.70;95.40;;;;;;5014334;28;20296;-59
2023/06/29 07:41:14;;;;;;;7.55;5.70;;;30.70;94.70;;;;;;5016665;28;20210;-59
2023/06/29 07:43:47;;;;;;;5.70;5.10;;;30.90;94.60;;;;;;5016740;28;20203;-61
2023/06/29 07:46:14;;;;;;;5.63;5.00;;;31.00;95.10;;;;;;5014007;28;20230;-59
2023/06/29 07:48:42;;;;;;;11.18;5.60;;;31.20;93.40;;;;;;5011219;28;20287;-59
2023/06/29 07:51:09;;;;;;;6.75;5.43;;;31.30;91.80;;;;;;5001853;28;20199;-60
2023/06/29 07:53:36;;;;;;;6.10;5.40;;;31.70;93.80;;;;;;5012111;28;20207;-60
2023/06/29 07:56:03;;;;;;;7.22;5.80;;;32.00;92.00;;;;;;5027121;28;20202;-60
2023/06/29 07:58:30;;;;;;;6.10;5.38;;;31.80;92.60;;;;;;5019839;28;20759;-59
2023/06/29 08:00:59;;;;;;;6.85;5.30;;;31.40;90.90;;;;;;5010556;28;20277;-60
2023/06/29 08:03:26;;;;;;;5.93;5.43;;;31.80;92.90;;;;;;5011427;28;20199;-60
2023/06/29 08:05:53;;;;;;;6.38;5.28;;;32.20;90.50;;;;;;5019153;28;20751;-60
2023/06/29 08:08:20;;;;;;;6.07;5.68;;;32.40;87.90;;;;;;5012199;28;20261;-59
2023/06/29 08:10:48;;;;;;;7.40;5.30;;;32.20;87.50;;;;;;5018381;28;20207;-60
2023/06/29 08:13:15;;;;;;;5.80;5.25;;;31.20;91.20;;;;;;5018572;28;20234;-59
2023/06/29 08:15:42;;;;;;;9.75;5.18;;;30.90;92.90;;;;;;5021404;28;20362;-59
2023/06/29 08:18:10;;;;;;;6.53;4.88;;;30.90;93.30;;;;;;5020099;28;20305;-59
2023/06/29 08:20:38;;;;;;;7.00;5.18;;;31.50;91.90;;;;;;5020581;28;20733;-59
2023/06/29 08:23:05;;;;;;;6.17;5.67;;;31.90;91.70;;;;;;5011048;28;20455;-64
2023/06/29 08:25:32;;;;;;;5.95;5.15;;;32.00;91.60;;;;;;5013156;28;20301;-64
2023/06/29 08:27:59;;;;;;;5.82;5.43;;;32.50;91.30;;;;;;5011506;28;20249;-63
2023/06/29 08:30:26;;;;;;;5.32;4.88;;;32.50;90.20;;;;;;5013494;28;20202;-64
2023/06/29 08:32:53;;;;;;;6.38;5.78;;;32.50;92.50;;;;;;5011847;28;20621;-62
2023/06/29 08:35:21;;;;;;;10.02;5.07;;;32.30;91.90;;;;;;5016633;28;20226;-66
2023/06/29 08:37:48;;;;;;;6.13;5.53;;;32.70;90.90;;;;;;5009531;28;20265;-62
2023/06/29 08:40:19;;;;;;;9.77;5.72;;;32.80;89.00;;;;;;5011447;28;20273;-64
2023/06/29 08:42:46;;;;;;;7.32;6.68;;;32.90;90.60;;;;;;5009951;28;20203;-62
2023/06/29 08:45:13;;;;;;;6.13;5.55;;;32.40;89.80;;;;;;5011803;28;20281;-63
2023/06/29 08:47:43;;;;;;;12.38;6.35;;;32.30;89.00;;;;;;5012032;28;20652;-62
2023/06/29 08:50:11;;;;;;;8.30;6.30;;;32.60;91.60;;;;;;5014464;28;20742;-64
2023/06/29 08:52:40;;;;;;;6.78;6.22;;;32.80;90.70;;;;;;5028353;28;20556;-62
2023/06/29 08:55:08;;;;;;;5.95;5.30;;;32.90;90.70;;;;;;5012734;28;20285;-63
2023/06/29 08:57:36;;;;;;;7.40;6.10;;;33.10;90.20;;;;;;5012845;28;20269;-63
2023/06/29 09:00:04;;;;;;;7.00;6.35;;;33.50;90.00;;;;;;5012713;28;20771;-62
2023/06/29 09:02:32;;;;;;;7.25;5.75;;;33.60;89.70;;;;;;5011721;28;20290;-62
2023/06/29 09:05:00;;;;;;;6.25;5.75;;;33.90;87.40;;;;;;5012468;28;20306;-64
2023/06/29 09:07:27;;;;;;;6.15;5.55;;;33.80;89.90;;;;;;5012635;28;20689;-66
2023/06/29 09:09:55;;;;;;;6.38;5.80;;;33.40;90.40;;;;;;5012566;28;20261;-64
2023/06/29 09:12:22;;;;;;;7.70;6.93;;;33.20;90.50;;;;;;5011852;28;20681;-64
2023/06/29 09:14:49;;;;;;;7.80;5.43;;;32.80;91.30;;;;;;5010572;28;20274;-68
2023/06/29 09:17:21;;;;;;;7.20;5.47;;;33.00;90.00;;;;;;5012644;28;20202;-66
2023/06/29 09:19:56;;;;;;;7.38;6.57;;;32.70;91.30;;;;;;5012427;28;20293;-63
2023/06/29 09:22:30;;;;;;;5.80;5.35;;;32.50;91.20;;;;;;5012361;28;20220;-65
2023/06/29 09:24:59;;;;;;;4.93;4.63;;;31.70;93.00;;;;;;5011480;28;20223;-63
2023/06/29 09:27:30;;;;;;;6.05;5.47;;;31.20;92.70;;;;;;5011812;28;20257;-62
2023/06/29 09:29:57;;;;;;;6.72;5.45;;;31.20;93.00;;;;;;5011849;28;20616;-63
2023/06/29 09:32:24;;;;;;;4.55;4.18;;;31.30;92.20;;;;;;5011742;28;20210;-66
2023/06/29 09:34:51;;;;;;;6.13;4.90;;;31.80;93.70;;;;;;5010354;28;20227;-66
2023/06/29 09:37:18;;;;;;;7.88;4.70;;;32.30;92.80;;;;;;5010189;28;20258;-63
2023/06/29 09:40:00;;;;;;;6.82;4.30;;;32.00;90.90;;;;;;5011791;28;20265;-63
2023/06/29 09:42:29;;;;;;;4.25;4.03;;;32.70;90.50;;;;;;5009087;28;20253;-65
2023/06/29 09:45:02;;;;;;;6.63;5.35;;;32.40;91.20;;;;;;5010323;28;20226;-59
2023/06/29 09:47:30;;;;;;;5.35;4.57;;;32.40;92.70;;;;;;5010752;28;20757;-60
2023/06/29 09:49:57;;;;;;;7.20;4.65;;;32.00;93.00;;;;;;5010388;28;20199;-69
2023/06/29 09:52:24;;;;;;;4.05;3.75;;;31.40;90.20;;;;;;5010552;28;20210;-68
2023/06/29 09:54:51;;;;;;;4.55;4.15;;;32.20;91.80;;;;;;5011740;28;20281;-61
2023/06/29 09:57:21;;;;;;;11.85;4.03;;;32.40;92.80;;;;;;5011855;28;20261;-61
2023/06/29 09:59:49;;;;;;;4.07;3.85;;;31.70;91.50;;;;;;5010497;28;20199;-62
2023/06/29 10:02:17;;;;;;;3.92;3.50;;;31.20;91.60;;;;;;5010049;28;20297;-60
2023/06/29 10:04:45;;;;;;;3.90;3.53;;;31.90;91.80;;;;;;5011198;28;20234;-59
2023/06/29 10:07:15;;;;;;;3.25;3.05;;;31.80;92.00;;;;;;5011657;28;20356;-61
2023/06/29 10:09:45;;;;;;;5.22;3.35;;;31.90;90.30;;;;;;5011777;28;20295;-61
2023/06/29 10:12:14;;;;;;;4.22;3.58;;;31.80;89.30;;;;;;5016060;28;20657;-61
2023/06/29 10:14:44;;;;;;;3.05;2.95;;;31.70;91.10;;;;;;5009731;28;20265;-60
2023/06/29 10:17:16;;;;;;;3.95;3.65;;;31.90;93.10;;;;;;5007870;28;20203;-59
2023/06/29 10:19:44;;;;;;;5.40;3.70;;;32.10;90.40;;;;;;5011725;28;20202;-60
2023/06/29 10:22:14;;;;;;;4.07;3.95;;;32.40;90.80;;;;;;5010285;28;20261;-59
2023/06/29 10:24:46;;;;;;;5.05;3.10;;;31.80;89.30;;;;;;5010138;28;20223;-59
2023/06/29 10:27:14;;;;;;;3.40;3.15;;;32.20;91.40;;;;;;5002300;28;20218;-60
2023/06/29 10:29:46;;;;;;;3.78;3.50;;;31.60;91.00;;;;;;5009703;28;20199;-59
2023/06/29 10:32:33;;;;;;;4.82;4.13;;;31.70;92.60;;;;;;5013741;28;20207;-59
2023/06/29 10:35:03;;;;;;;18.65;5.05;;;30.90;91.60;;;;;;5011151;28;20712;-59
2023/06/29 10:37:35;;;;;;;7.82;4.00;;;31.10;91.80;;;;;;5011175;28;20745;-58
2023/06/29 10:40:05;;;;;;;5.43;3.60;;;30.50;91.60;;;;;;5011648;28;20203;-61
2023/06/29 10:42:52;;;;;;;4.45;4.05;;;30.60;91.40;;;;;;5009885;28;20203;-61
2023/06/29 10:45:33;;;;;;;4.72;3.72;;;30.80;91.10;;;;;;5004675;28;20227;-61
2023/06/29 10:48:05;;;;;;;8.18;4.78;;;31.40;91.40;;;;;;5011527;28;20206;-73
2023/06/29 10:50:35;;;;;;;9.00;4.78;;;31.80;90.60;;;;;;5011015;28;20200;-69
2023/06/29 10:53:04;;;;;;;10.98;4.82;;;32.40;90.40;;;;;;5014675;28;20269;-68
2023/06/29 10:55:41;;;;;;;7.35;4.00;;;32.40;90.50;;;;;;5013580;28;20819;-65
2023/06/29 10:58:14;;;;;;;5.13;4.32;;;32.20;88.80;;;;;;5006782;28;20198;-67
2023/06/29 11:00:43;;;;;;;4.72;3.65;;;31.70;90.00;;;;;;5015318;28;20634;-68
2023/06/29 11:03:10;;;;;;;6.30;4.50;;;31.30;91.10;;;;;;5014883;28;20207;-68
2023/06/29 11:05:38;;;;;;;8.18;5.40;;;30.70;91.00;;;;;;5013905;28;20223;-68
2023/06/29 11:08:07;;;;;;;13.88;5.78;;;30.80;92.10;;;;;;5014897;28;20221;-71
2023/06/29 11:10:35;;;;;;;12.90;6.88;;;30.30;91.60;;;;;;5014685;28;20639;-72
2023/06/29 11:13:07;;;;;;;6.28;5.10;;;30.10;93.40;;;;;;5008895;28;20621;-70
2023/06/29 11:15:34;;;;;;;6.93;5.28;;;29.80;91.10;;;;;;5014532;28;20802;-71
2023/06/29 11:18:04;;;;;;;10.30;5.47;;;29.70;91.70;;;;;;5014805;28;20206;-65
2023/06/29 11:20:33;;;;;;;8.23;5.70;;;29.60;93.00;;;;;;5014700;28;20214;-71
2023/06/29 11:23:01;;;;;;;6.60;5.53;;;29.70;92.20;;;;;;5014389;28;20261;-68
2023/06/29 11:25:29;;;;;;;5.55;5.05;;;29.60;91.30;;;;;;5014714;28;20227;-71
2023/06/29 11:27:56;;;;;;;7.80;6.97;;;29.40;90.50;;;;;;5014579;28;20583;-70
2023/06/29 11:30:23;;;;;;;10.60;6.63;;;29.20;91.60;;;;;;5012767;28;20199;-68
2023/06/29 11:32:53;;;;;;;5.95;5.43;;;29.20;91.80;;;;;;5014264;28;20199;-68
2023/06/29 11:35:22;;;;;;;6.38;5.85;;;29.30;91.30;;;;;;5015029;28;20227;-73
2023/06/29 11:37:50;;;;;;;10.05;6.57;;;29.20;90.50;;;;;;5014189;28;20677;-66
2023/06/29 11:40:19;;;;;;;10.68;6.75;;;29.00;91.80;;;;;;5014485;28;20589;-67
2023/06/29 11:42:46;;;;;;;7.15;5.50;;;28.90;92.40;;;;;;5014056;28;20744;-60
2023/06/29 11:45:13;;;;;;;10.48;5.97;;;28.70;92.10;;;;;;5012535;28;20281;-63
2023/06/29 11:47:41;;;;;;;7.07;5.65;;;28.60;92.40;;;;;;5005776;28;20325;-64
2023/06/29 11:50:10;;;;;;;13.20;7.43;;;28.40;91.70;;;;;;5009944;28;20210;-66
2023/06/29 11:52:40;;;;;;;8.10;6.30;;;28.40;92.90;;;;;;5013918;28;20200;-64
2023/06/29 11:55:09;;;;;;;11.90;7.50;;;28.20;91.30;;;;;;5013969;28;20254;-65
2023/06/29 11:57:37;;;;;;;7.82;7.13;;;28.20;92.30;;;;;;5014030;28;20195;-68
2023/06/29 12:00:07;;;;;;;13.13;8.32;;;28.20;93.30;;;;;;5015009;28;20195;-64
2023/06/29 12:02:34;;;;;;;8.15;6.72;;;28.30;93.10;;;;;;5011232;28;20234;-67
2023/06/29 12:05:04;;;;;;;8.65;6.88;;;28.40;91.10;;;;;;5075409;22;20226;-56
2023/06/29 12:07:40;;;;;;;6.20;5.45;;;28.50;91.10;;;;;;5033043;28;20708;-56
2023/06/29 12:10:08;;;;;;;8.80;6.05;;;28.50;90.10;;;;;;5033052;28;20202;-57
2023/06/29 12:12:39;;;;;;;7.68;6.07;;;28.70;91.20;;;;;;5031041;28;20206;-58
2023/06/29 12:15:17;;;;;;;8.90;5.10;;;28.60;91.00;;;;;;5031771;28;20984;-58
2023/06/29 12:17:45;;;;;;;8.45;6.00;;;28.30;91.70;;;;;;5032019;28;20305;-58
2023/06/29 12:20:14;;;;;;;7.55;5.55;;;28.30;92.00;;;;;;5030716;28;20260;-58
2023/06/29 12:22:43;;;;;;;4.75;4.28;;;28.40;89.70;;;;;;5032934;28;20206;-58
2023/06/29 12:25:12;;;;;;;5.22;4.72;;;28.50;88.60;;;;;;5032519;28;20210;-58
2023/06/29 12:27:41;;;;;;;5.50;4.75;;;28.60;89.60;;;;;;5033088;28;20222;-57
2023/06/29 12:30:10;;;;;;;7.82;4.85;;;28.60;91.10;;;;;;5033035;28;20301;-57
2023/06/29 12:32:37;;;;;;;5.93;3.95;;;28.30;88.60;;;;;;5032672;28;20210;-58
2023/06/29 12:35:05;;;;;;;5.18;3.78;;;28.20;88.10;;;;;;5027881;28;20222;-58
2023/06/29 12:37:32;;;;;;;5.45;4.93;;;27.90;89.00;;;;;;5031551;28;20194;-57
2023/06/29 12:40:00;;;;;;;4.72;4.32;;;27.80;89.40;;;;;;5032178;28;20727;-52
2023/06/29 12:42:30;;;;;;;4.70;4.40;;;27.90;89.40;;;;;;5032039;28;20202;-52
2023/06/29 12:44:57;;;;;;;5.00;4.70;;;28.10;90.70;;;;;;5032532;28;20233;-52
2023/06/29 12:47:24;;;;;;;4.15;3.92;;;28.30;91.70;;;;;;5032353;28;20678;-52
2023/06/29 12:49:51;;;;;;;4.05;3.83;;;28.20;88.70;;;;;;5025636;28;20207;-52